DLH2248 EDDM-LFLL
Flight info
| Callsign | DLH2248 |
|---|---|
| Flight time | 0h 55m |
| Altitude | 29000 |
| Route | ALG2N ALG Y109 UMTEX Y100 TRA/N0447F310 DCT LUTIX DCT BENOT N869 MILPA |
| Aircraft | A321/M-SDE3FGHIRWY/LB1 |
Departure
| Time | 2026-05-04 10:04 |
|---|---|
| Airport | Munich Airport (EDDM) |
Arrival
| Time | 2026-05-04 10:59 |
|---|---|
| Airport | Lyon Saint-Exupéry Airport (LFLL) |
| Time | Latitude | Longitude | Altitude | Speed | Heading |
|---|---|---|---|---|---|
| 2026-05-04 09:42 | 48.35304 | 11.80035 | 1485 ft | 0 kts | 263° |
| 2026-05-04 09:51 | 48.35336 | 11.80131 | 1474 ft | 0 kts | 173° |
| 2026-05-04 09:53 | 48.35335 | 11.80131 | 1474 ft | 1 kts | 177° |
| 2026-05-04 09:53 | 48.35324 | 11.80132 | 1475 ft | 2 kts | 175° |
| 2026-05-04 09:53 | 48.35299 | 11.80136 | 1475 ft | 5 kts | 173° |
| 2026-05-04 09:54 | 48.35256 | 11.80144 | 1478 ft | 8 kts | 173° |
| 2026-05-04 09:54 | 48.35191 | 11.80153 | 1479 ft | 10 kts | 181° |
| 2026-05-04 09:54 | 48.35158 | 11.80051 | 1482 ft | 13 kts | 263° |
| 2026-05-04 09:54 | 48.35147 | 11.79901 | 1485 ft | 16 kts | 263° |
| 2026-05-04 09:55 | 48.35137 | 11.79721 | 1485 ft | 19 kts | 268° |
| 2026-05-04 09:55 | 48.35124 | 11.79585 | 1477 ft | 11 kts | 261° |
| 2026-05-04 09:55 | 48.35069 | 11.79520 | 1479 ft | 12 kts | 177° |
| 2026-05-04 09:55 | 48.34979 | 11.79536 | 1481 ft | 14 kts | 173° |
| 2026-05-04 09:56 | 48.34874 | 11.79553 | 1478 ft | 15 kts | 174° |
| 2026-05-04 09:56 | 48.34798 | 11.79625 | 1483 ft | 14 kts | 96° |
| 2026-05-04 09:56 | 48.34808 | 11.79786 | 1482 ft | 16 kts | 83° |
| 2026-05-04 09:56 | 48.34820 | 11.79939 | 1485 ft | 11 kts | 84° |
| 2026-05-04 09:57 | 48.34829 | 11.80047 | 1479 ft | 9 kts | 83° |
| 2026-05-04 09:57 | 48.34822 | 11.80133 | 1479 ft | 8 kts | 116° |
| 2026-05-04 09:57 | 48.34794 | 11.80192 | 1482 ft | 6 kts | 128° |
| 2026-05-04 09:57 | 48.34763 | 11.80233 | 1481 ft | 6 kts | 155° |
| 2026-05-04 09:58 | 48.34713 | 11.80245 | 1483 ft | 8 kts | 173° |
| 2026-05-04 09:58 | 48.34672 | 11.80253 | 1479 ft | 0 kts | 173° |
| 2026-05-04 10:02 | 48.34450 | 11.80073 | 1479 ft | 22 kts | 263° |
| 2026-05-04 10:04 | 48.33583 | 11.68287 | 3732 ft | 233 kts | 263° |
| 2026-05-04 10:04 | 48.33378 | 11.65784 | 4262 ft | 247 kts | 263° |
| 2026-05-04 10:04 | 48.33171 | 11.63187 | 4882 ft | 259 kts | 263° |
| 2026-05-04 10:04 | 48.32965 | 11.60387 | 5297 ft | 276 kts | 263° |
| 2026-05-04 10:05 | 48.32757 | 11.57482 | 6013 ft | 282 kts | 262° |
| 2026-05-04 10:05 | 48.32545 | 11.54528 | 6738 ft | 285 kts | 261° |
| 2026-05-04 10:05 | 48.32333 | 11.51580 | 7020 ft | 284 kts | 262° |
| 2026-05-04 10:05 | 48.32118 | 11.48624 | 7751 ft | 284 kts | 262° |
| 2026-05-04 10:06 | 48.31901 | 11.45684 | 8630 ft | 283 kts | 262° |
| 2026-05-04 10:06 | 48.31682 | 11.42751 | 9453 ft | 283 kts | 262° |
| 2026-05-04 10:06 | 48.31459 | 11.39810 | 10222 ft | 284 kts | 262° |
| 2026-05-04 10:08 | 48.27932 | 11.22444 | 13328 ft | 332 kts | 237° |
| 2026-05-04 10:08 | 48.26660 | 11.19431 | 13486 ft | 350 kts | 236° |
| 2026-05-04 10:08 | 48.25341 | 11.16298 | 13911 ft | 359 kts | 237° |
| 2026-05-04 10:08 | 48.24001 | 11.13108 | 14438 ft | 363 kts | 237° |
| 2026-05-04 10:09 | 48.22649 | 11.09891 | 15000 ft | 366 kts | 237° |
| 2026-05-04 10:09 | 48.21282 | 11.06646 | 15563 ft | 368 kts | 237° |
| 2026-05-04 10:09 | 48.19913 | 11.03392 | 16128 ft | 371 kts | 237° |
| 2026-05-04 10:09 | 48.18532 | 11.00111 | 16701 ft | 373 kts | 237° |
| 2026-05-04 10:10 | 48.17140 | 10.96805 | 17235 ft | 376 kts | 237° |
| 2026-05-04 10:10 | 48.15736 | 10.93477 | 17777 ft | 379 kts | 238° |
| 2026-05-04 10:10 | 48.14323 | 10.90134 | 18294 ft | 382 kts | 238° |
| 2026-05-04 10:10 | 48.12896 | 10.86765 | 18697 ft | 385 kts | 237° |
| 2026-05-04 10:11 | 48.11452 | 10.83358 | 19076 ft | 389 kts | 238° |
| 2026-05-04 10:11 | 48.10180 | 10.79778 | 19489 ft | 392 kts | 247° |
| 2026-05-04 10:11 | 48.09323 | 10.75885 | 19909 ft | 396 kts | 253° |
| 2026-05-04 10:11 | 48.08576 | 10.71907 | 20337 ft | 398 kts | 253° |
| 2026-05-04 10:12 | 48.07817 | 10.67908 | 20795 ft | 400 kts | 253° |
| 2026-05-04 10:12 | 48.07047 | 10.63894 | 21235 ft | 403 kts | 253° |
| 2026-05-04 10:12 | 48.06279 | 10.59912 | 21666 ft | 405 kts | 253° |
| 2026-05-04 10:12 | 48.05493 | 10.55845 | 22095 ft | 407 kts | 253° |
| 2026-05-04 10:13 | 48.04704 | 10.51769 | 22523 ft | 409 kts | 253° |
| 2026-05-04 10:13 | 48.03910 | 10.47676 | 22943 ft | 412 kts | 253° |
| 2026-05-04 10:13 | 48.03112 | 10.43551 | 23364 ft | 414 kts | 253° |
| 2026-05-04 10:13 | 48.02308 | 10.39407 | 23747 ft | 416 kts | 253° |
| 2026-05-04 10:14 | 48.01501 | 10.35248 | 24104 ft | 418 kts | 252° |
| 2026-05-04 10:14 | 48.00687 | 10.31065 | 24474 ft | 419 kts | 252° |
| 2026-05-04 10:16 | 47.93723 | 10.02164 | 26956 ft | 428 kts | 248° |
| 2026-05-04 10:16 | 47.92666 | 9.98001 | 27301 ft | 430 kts | 248° |
| 2026-05-04 10:16 | 47.91615 | 9.93819 | 27630 ft | 431 kts | 248° |
| 2026-05-04 10:16 | 47.90564 | 9.89634 | 27972 ft | 432 kts | 248° |
| 2026-05-04 10:17 | 47.89504 | 9.85434 | 28305 ft | 433 kts | 248° |
| 2026-05-04 10:17 | 47.88441 | 9.81219 | 28605 ft | 434 kts | 248° |
| 2026-05-04 10:19 | 47.82419 | 9.51240 | 30023 ft | 433 kts | 257° |
| 2026-05-04 10:19 | 47.81899 | 9.46880 | 30026 ft | 433 kts | 257° |
| 2026-05-04 10:19 | 47.80830 | 9.38052 | 30030 ft | 433 kts | 257° |
| 2026-05-04 10:20 | 47.79753 | 9.29242 | 30043 ft | 433 kts | 257° |
| 2026-05-04 10:20 | 47.78679 | 9.20440 | 30028 ft | 432 kts | 257° |
| 2026-05-04 10:21 | 47.77594 | 9.11637 | 30028 ft | 432 kts | 257° |
| 2026-05-04 10:21 | 47.76492 | 9.02844 | 30030 ft | 432 kts | 257° |
| 2026-05-04 10:22 | 47.74840 | 8.89677 | 30028 ft | 432 kts | 257° |
| 2026-05-04 10:23 | 47.73731 | 8.80874 | 30026 ft | 432 kts | 257° |
| 2026-05-04 10:25 | 47.69074 | 8.45977 | 30027 ft | 429 kts | 249° |
| 2026-05-04 10:25 | 47.66312 | 8.38222 | 30037 ft | 425 kts | 233° |
| 2026-05-04 10:26 | 47.62850 | 8.31101 | 30031 ft | 425 kts | 233° |
| 2026-05-04 10:26 | 47.59397 | 8.23974 | 30034 ft | 426 kts | 233° |
| 2026-05-04 10:27 | 47.56528 | 8.18054 | 30034 ft | 426 kts | 233° |
| 2026-05-04 10:27 | 47.53062 | 8.10949 | 30041 ft | 426 kts | 233° |
| 2026-05-04 10:28 | 47.49592 | 8.03856 | 30038 ft | 425 kts | 233° |
| 2026-05-04 10:28 | 47.46129 | 7.96781 | 30030 ft | 424 kts | 233° |
| 2026-05-04 10:29 | 47.42661 | 7.89720 | 30027 ft | 424 kts | 233° |
| 2026-05-04 10:29 | 47.39230 | 7.82759 | 30032 ft | 413 kts | 233° |
| 2026-05-04 10:30 | 47.35856 | 7.75924 | 30022 ft | 412 kts | 233° |
| 2026-05-04 10:30 | 47.32476 | 7.69105 | 30023 ft | 411 kts | 233° |
| 2026-05-04 10:31 | 47.29119 | 7.62342 | 30023 ft | 411 kts | 233° |
| 2026-05-04 10:32 | 47.17272 | 7.38604 | 30029 ft | 410 kts | 232° |
| 2026-05-04 10:33 | 47.13824 | 7.31933 | 30023 ft | 409 kts | 230° |
| 2026-05-04 10:33 | 47.10251 | 7.25424 | 30008 ft | 409 kts | 230° |
| 2026-05-04 10:34 | 47.06666 | 7.18937 | 30010 ft | 409 kts | 230° |
| 2026-05-04 10:34 | 47.03128 | 7.12464 | 30035 ft | 409 kts | 230° |
| 2026-05-04 10:35 | 46.99550 | 7.05907 | 30019 ft | 409 kts | 230° |
| 2026-05-04 10:35 | 46.96016 | 6.99442 | 30018 ft | 410 kts | 230° |
| 2026-05-04 10:36 | 46.92445 | 6.92935 | 30039 ft | 410 kts | 229° |
| 2026-05-04 10:36 | 46.88871 | 6.86446 | 30037 ft | 409 kts | 229° |
| 2026-05-04 10:37 | 46.85301 | 6.79969 | 30030 ft | 409 kts | 229° |
| 2026-05-04 10:37 | 46.81725 | 6.73498 | 29754 ft | 409 kts | 229° |
| 2026-05-04 10:39 | 46.70838 | 6.54025 | 28112 ft | 416 kts | 227° |
| 2026-05-04 10:39 | 46.68941 | 6.50856 | 27664 ft | 413 kts | 227° |
| 2026-05-04 10:39 | 46.67041 | 6.47757 | 27032 ft | 408 kts | 226° |
| 2026-05-04 10:40 | 46.65151 | 6.44710 | 26358 ft | 404 kts | 226° |
| 2026-05-04 10:40 | 46.63279 | 6.41696 | 25723 ft | 400 kts | 226° |
| 2026-05-04 10:40 | 46.61445 | 6.38729 | 25098 ft | 396 kts | 226° |
| 2026-05-04 10:40 | 46.59618 | 6.35749 | 24469 ft | 393 kts | 227° |
| 2026-05-04 10:41 | 46.57814 | 6.32789 | 23852 ft | 389 kts | 227° |
| 2026-05-04 10:41 | 46.56029 | 6.29859 | 23186 ft | 386 kts | 227° |
| 2026-05-04 10:41 | 46.54258 | 6.26953 | 22564 ft | 381 kts | 227° |
| 2026-05-04 10:41 | 46.52505 | 6.24083 | 21972 ft | 378 kts | 227° |
| 2026-05-04 10:42 | 46.50766 | 6.21240 | 21382 ft | 375 kts | 227° |
| 2026-05-04 10:42 | 46.49039 | 6.18423 | 20805 ft | 372 kts | 227° |
| 2026-05-04 10:42 | 46.47323 | 6.15629 | 20247 ft | 369 kts | 227° |
| 2026-05-04 10:42 | 46.45620 | 6.12859 | 19700 ft | 366 kts | 227° |
| 2026-05-04 10:43 | 46.43933 | 6.10117 | 19144 ft | 364 kts | 227° |
| 2026-05-04 10:44 | 46.32364 | 5.91388 | 15681 ft | 348 kts | 227° |
| 2026-05-04 10:45 | 46.30875 | 5.88641 | 15186 ft | 346 kts | 235° |
| 2026-05-04 10:45 | 46.29732 | 5.85584 | 14682 ft | 345 kts | 245° |
| 2026-05-04 10:45 | 46.28924 | 5.82370 | 14171 ft | 344 kts | 249° |
| 2026-05-04 10:45 | 46.28157 | 5.79108 | 13617 ft | 342 kts | 249° |
| 2026-05-04 10:46 | 46.27386 | 5.75871 | 13079 ft | 339 kts | 248° |
| 2026-05-04 10:46 | 46.26615 | 5.72656 | 12537 ft | 336 kts | 248° |
| 2026-05-04 10:46 | 46.25855 | 5.69478 | 12011 ft | 334 kts | 248° |
| 2026-05-04 10:46 | 46.25096 | 5.66313 | 11475 ft | 329 kts | 248° |
| 2026-05-04 10:47 | 46.24350 | 5.63203 | 10952 ft | 327 kts | 248° |
| 2026-05-04 10:47 | 46.23625 | 5.60172 | 10682 ft | 307 kts | 247° |
| 2026-05-04 10:47 | 46.22948 | 5.57338 | 10562 ft | 292 kts | 249° |
| 2026-05-04 10:47 | 46.22296 | 5.54624 | 10362 ft | 282 kts | 249° |
| 2026-05-04 10:49 | 46.16337 | 5.38112 | 9001 ft | 269 kts | 212° |
| 2026-05-04 10:49 | 46.14758 | 5.36642 | 8693 ft | 268 kts | 212° |
| 2026-05-04 10:50 | 46.13211 | 5.35223 | 8444 ft | 266 kts | 212° |
| 2026-05-04 10:51 | 46.03900 | 5.22972 | 5055 ft | 251 kts | 221° |
| 2026-05-04 10:52 | 46.02685 | 5.21195 | 4590 ft | 248 kts | 221° |
| 2026-05-04 10:52 | 46.01470 | 5.19425 | 4143 ft | 249 kts | 221° |
| 2026-05-04 10:52 | 46.00276 | 5.17683 | 3956 ft | 239 kts | 221° |
| 2026-05-04 10:54 | 45.92794 | 5.07373 | 3006 ft | 198 kts | 198° |
| 2026-05-04 10:54 | 45.91531 | 5.07008 | 2998 ft | 173 kts | 179° |
| 2026-05-04 10:56 | 45.84018 | 5.07903 | 2871 ft | 156 kts | 176° |
| 2026-05-04 10:56 | 45.82933 | 5.08036 | 2694 ft | 157 kts | 175° |
| 2026-05-04 10:56 | 45.81879 | 5.08164 | 2492 ft | 148 kts | 175° |
| 2026-05-04 10:57 | 45.80873 | 5.08287 | 2302 ft | 143 kts | 176° |
| 2026-05-04 10:57 | 45.79890 | 5.08407 | 2117 ft | 141 kts | 175° |
| 2026-05-04 10:57 | 45.78916 | 5.08526 | 1923 ft | 140 kts | 175° |
| 2026-05-04 10:57 | 45.77935 | 5.08646 | 1720 ft | 140 kts | 175° |
| 2026-05-04 10:58 | 45.76967 | 5.08764 | 1524 ft | 139 kts | 173° |
| 2026-05-04 10:58 | 45.76002 | 5.08882 | 1336 ft | 140 kts | 173° |
| 2026-05-04 10:58 | 45.75052 | 5.08997 | 1145 ft | 139 kts | 171° |
| 2026-05-04 10:58 | 45.74074 | 5.09109 | 956 ft | 140 kts | 172° |
| 2026-05-04 10:59 | 45.73111 | 5.09236 | 812 ft | 136 kts | 173° |
| 2026-05-04 10:59 | 45.72292 | 5.09331 | 813 ft | 92 kts | 176° |
| 2026-05-04 10:59 | 45.71860 | 5.09373 | 820 ft | 35 kts | 188° |
| 2026-05-04 10:59 | 45.71734 | 5.09313 | 822 ft | 14 kts | 204° |
| 2026-05-04 11:00 | 45.71650 | 5.09242 | 818 ft | 14 kts | 235° |
| 2026-05-04 11:01 | 45.71597 | 5.08536 | 803 ft | 13 kts | 275° |
| 2026-05-04 11:02 | 45.71645 | 5.08499 | 803 ft | 8 kts | 358° |
| 2026-05-04 11:02 | 45.71714 | 5.08492 | 802 ft | 12 kts | 355° |
| 2026-05-04 11:05 | 45.72355 | 5.08189 | 797 ft | 0 kts | 346° |